Time;durP1;ratioP1;P1;durP2;ratioP2;P2;SDS_P1;SDS_P2;PMS_P1;PMS_P2;Temp;Humidity;BMP_temperature;BMP_pressure;BME280_temperature;BME280_humidity;BME280_pressure;Samples;Min_cycle;Max_cycle;Signal;HPM_P1;HPM_P2
2022/10/06 00:01:49;;;;;;;6.20;4.10;;;;;;;14.28;80.79;101279.47;7391927;19;20074;-70
2022/10/06 00:04:18;;;;;;;7.82;4.00;;;;;;;14.26;80.56;101274.25;7391876;19;20398;-71
2022/10/06 00:06:50;;;;;;;6.00;4.13;;;;;;;14.27;80.93;101272.50;7398578;19;20022;-70
2022/10/06 00:09:24;;;;;;;6.45;3.97;;;;;;;14.28;80.54;101266.28;7401151;19;20018;-71
2022/10/06 00:11:53;;;;;;;4.55;3.88;;;;;;;14.25;80.65;101274.28;7401712;19;20036;-71
2022/10/06 00:14:21;;;;;;;4.32;3.90;;;;;;;14.26;80.93;101276.03;7398387;19;20018;-72
2022/10/06 00:16:56;;;;;;;4.55;3.67;;;;;;;14.26;81.10;101283.94;7400325;19;20467;-70
2022/10/06 00:19:25;;;;;;;3.80;3.42;;;;;;;14.25;81.21;101295.41;7400877;19;20022;-71
2022/10/06 00:21:56;;;;;;;10.07;4.10;;;;;;;14.24;80.89;101289.28;7398235;19;20027;-71
2022/10/06 00:24:24;;;;;;;5.70;3.20;;;;;;;14.21;81.07;101281.44;7401260;19;20018;-71
2022/10/06 00:26:53;;;;;;;5.25;3.47;;;;;;;14.20;80.84;101299.94;7398114;19;20018;-70
2022/10/06 00:29:21;;;;;;;4.60;3.53;;;;;;;14.17;81.00;101307.03;7400062;19;20023;-71
2022/10/06 00:31:49;;;;;;;6.65;4.07;;;;;;;14.15;81.38;101308.00;7400117;19;20488;-71
2022/10/06 00:34:18;;;;;;;5.35;3.80;;;;;;;14.12;81.41;101322.13;7400065;19;20027;-71
2022/10/06 00:36:46;;;;;;;5.38;3.90;;;;;;;14.10;81.40;101317.81;7399963;19;20015;-70
2022/10/06 00:39:18;;;;;;;6.07;3.97;;;;;;;14.08;82.02;101319.59;7400193;19;20063;-71
2022/10/06 00:41:47;;;;;;;5.57;4.43;;;;;;;14.07;81.71;101329.31;7398697;19;20015;-71
2022/10/06 00:44:15;;;;;;;5.50;4.47;;;;;;;14.05;82.05;101325.84;7399944;19;20022;-71
2022/10/06 00:46:46;;;;;;;6.45;4.30;;;;;;;14.04;81.82;101320.59;7399737;19;20019;-71
2022/10/06 00:49:19;;;;;;;5.03;4.30;;;;;;;14.03;81.98;101317.13;7400033;19;20022;-71
2022/10/06 00:51:51;;;;;;;4.80;4.30;;;;;;;14.04;82.04;101317.97;7397648;19;20485;-71
2022/10/06 00:54:23;;;;;;;5.80;3.85;;;;;;;14.05;82.03;101324.97;7400663;19;20474;-71
2022/10/06 00:56:52;;;;;;;7.25;4.03;;;;;;;14.05;82.04;101317.91;7397258;19;20018;-70
2022/10/06 00:59:21;;;;;;;9.10;3.78;;;;;;;14.07;82.26;101324.03;7400577;19;20015;-71
2022/10/06 01:01:58;;;;;;;4.93;3.72;;;;;;;14.08;82.18;101331.03;7402666;19;20022;-71
2022/10/06 01:04:27;;;;;;;5.47;3.85;;;;;;;14.12;81.98;101335.31;7400954;19;20010;-71
2022/10/06 01:06:59;;;;;;;3.75;3.40;;;;;;;14.16;82.10;101329.06;7398953;19;20018;-70
2022/10/06 01:09:32;;;;;;;3.97;3.67;;;;;;;14.18;82.36;101331.66;7399072;19;20018;-70
2022/10/06 01:12:04;;;;;;;4.57;3.47;;;;;;;14.22;82.01;101327.19;7399272;19;20431;-70
2022/10/06 01:14:41;;;;;;;5.20;3.13;;;;;;;14.25;82.15;101327.94;7400174;19;20031;-70
2022/10/06 01:17:15;;;;;;;9.48;4.45;;;;;;;14.30;81.96;101328.66;7397737;19;20029;-69
2022/10/06 01:19:49;;;;;;;;;;;;;;;14.32;82.33;101323.38;7399460;19;20510;-70
2022/10/06 01:22:20;;;;;;;8.05;3.78;;;;;;;14.36;81.38;101330.28;7399235;19;20310;-70
2022/10/06 01:24:51;;;;;;;3.95;3.20;;;;;;;14.38;81.44;101331.13;7400634;19;20037;-70
2022/10/06 01:27:22;;;;;;;7.22;3.90;;;;;;;14.40;81.41;101328.44;7397949;19;20021;-69
2022/10/06 01:29:54;;;;;;;8.52;4.03;;;;;;;14.40;81.24;101324.00;7398387;19;20023;-70
2022/10/06 01:32:23;;;;;;;5.00;4.10;;;;;;;14.41;81.42;101327.53;7396769;19;20018;-70
2022/10/06 01:34:51;;;;;;;6.00;3.80;;;;;;;14.41;81.44;101340.72;7398393;19;20019;-70
2022/10/06 01:37:20;;;;;;;5.30;4.05;;;;;;;14.40;81.35;101342.47;7397150;19;20022;-69
2022/10/06 01:39:51;;;;;;;4.18;3.78;;;;;;;14.38;81.51;101348.72;7396254;19;20078;-71
2022/10/06 01:42:19;;;;;;;6.13;3.85;;;;;;;14.37;81.53;101349.63;7396441;19;20032;-71
2022/10/06 01:44:48;;;;;;;4.35;3.95;;;;;;;14.36;81.63;101356.69;7398066;19;20019;-71
2022/10/06 01:47:16;;;;;;;4.88;3.72;;;;;;;14.35;81.78;101354.94;7397337;19;20015;-70
2022/10/06 01:49:45;;;;;;;4.72;3.75;;;;;;;14.34;81.72;101345.28;7397251;19;20082;-71
2022/10/06 01:52:13;;;;;;;4.63;3.55;;;;;;;14.32;81.73;101331.28;7397912;19;20036;-72
2022/10/06 01:54:42;;;;;;;5.57;3.67;;;;;;;14.29;81.76;101339.28;7397550;19;20417;-71
2022/10/06 01:57:13;;;;;;;6.28;3.40;;;;;;;14.30;81.84;101347.13;7396764;19;20038;-71
2022/10/06 01:59:42;;;;;;;4.75;3.55;;;;;;;14.30;82.27;101346.28;7397230;19;20010;-71
2022/10/06 02:02:10;;;;;;;4.65;4.13;;;;;;;14.28;81.96;101343.69;7397530;19;20026;-71
2022/10/06 02:04:39;;;;;;;4.55;3.40;;;;;;;14.27;82.08;101336.69;7397049;19;20387;-71
2022/10/06 02:07:08;;;;;;;8.23;4.22;;;;;;;14.27;81.76;101338.47;7396508;19;20019;-71
2022/10/06 02:09:36;;;;;;;3.70;3.33;;;;;;;14.26;82.27;101344.66;7397144;19;20026;-71
2022/10/06 02:12:05;;;;;;;4.22;3.83;;;;;;;14.25;82.22;101341.13;7396839;19;20018;-72
2022/10/06 02:14:37;;;;;;;5.25;4.20;;;;;;;14.25;82.36;101350.84;7398534;19;20508;-71
2022/10/06 02:17:05;;;;;;;5.90;3.90;;;;;;;14.25;82.40;101342.91;7397628;19;20439;-71
2022/10/06 02:19:34;;;;;;;5.35;3.92;;;;;;;14.24;82.32;101347.34;7396037;19;20489;-70
2022/10/06 02:22:03;;;;;;;5.05;3.80;;;;;;;14.25;82.29;101354.31;7395649;19;20372;-70
2022/10/06 02:24:31;;;;;;;4.22;3.83;;;;;;;14.27;82.59;101356.94;7394958;19;20031;-71
2022/10/06 02:27:00;;;;;;;4.57;3.50;;;;;;;14.28;82.50;101361.28;7394431;19;20022;-70
2022/10/06 02:29:28;;;;;;;7.13;3.75;;;;;;;14.29;82.35;101360.38;7396598;19;20376;-70
2022/10/06 02:31:59;;;;;;;5.55;3.38;;;;;;;14.32;82.55;101361.16;7394012;19;20019;-70
2022/10/06 02:34:28;;;;;;;5.07;3.30;;;;;;;14.33;82.66;101359.38;7396220;19;20386;-70
2022/10/06 02:36:56;;;;;;;4.22;3.65;;;;;;;14.37;82.35;101368.09;7395510;19;20085;-70
2022/10/06 02:39:25;;;;;;;5.78;3.30;;;;;;;14.37;82.29;101363.69;7395698;19;20027;-71
2022/10/06 02:41:54;;;;;;;6.65;3.95;;;;;;;14.40;82.12;101368.88;7394988;19;20023;-70
2022/10/06 02:44:23;;;;;;;3.88;3.28;;;;;;;14.42;82.01;101367.06;7396172;19;20031;-70
2022/10/06 02:46:52;;;;;;;8.32;3.88;;;;;;;14.45;81.85;101363.47;7395768;19;20014;-70
2022/10/06 02:49:23;;;;;;;5.85;3.25;;;;;;;14.46;82.06;101350.22;7395589;19;20021;-70
2022/10/06 02:51:52;;;;;;;5.05;3.20;;;;;;;14.49;81.83;101360.72;7394106;19;20018;-71
2022/10/06 02:54:21;;;;;;;4.60;3.22;;;;;;;14.49;82.04;101360.72;7395825;19;20018;-71
2022/10/06 02:56:50;;;;;;;5.63;2.92;;;;;;;14.49;81.83;101355.44;7395155;19;20018;-70
2022/10/06 02:59:19;;;;;;;4.65;3.28;;;;;;;14.55;81.61;101370.22;7393893;19;20010;-70
2022/10/06 03:01:47;;;;;;;4.43;3.95;;;;;;;14.57;81.73;101378.97;7395712;19;20035;-70
2022/10/06 03:04:16;;;;;;;6.88;3.67;;;;;;;14.59;81.61;101386.84;7395114;19;20485;-71
2022/10/06 03:06:47;;;;;;;3.53;2.97;;;;;;;14.59;81.58;101384.22;7394444;19;20023;-71
2022/10/06 03:09:16;;;;;;;5.88;3.40;;;;;;;14.60;81.75;101394.72;7395585;19;20026;-70
2022/10/06 03:11:45;;;;;;;8.38;3.78;;;;;;;14.60;81.73;101392.09;7393544;19;20481;-71
2022/10/06 03:14:13;;;;;;;5.47;3.13;;;;;;;14.59;81.48;101400.91;7395182;19;20027;-70
2022/10/06 03:16:44;;;;;;;4.43;3.10;;;;;;;14.59;81.39;101411.47;7393025;19;20018;-70
2022/10/06 03:19:13;;;;;;;3.67;3.28;;;;;;;14.58;81.69;101406.25;7393142;19;20023;-72
2022/10/06 03:21:44;;;;;;;3.50;2.80;;;;;;;14.56;81.87;101416.84;7395157;19;20019;-71
2022/10/06 03:24:16;;;;;;;4.40;2.88;;;;;;;14.57;81.88;101420.34;7394851;19;20028;-70
2022/10/06 03:26:46;;;;;;;5.50;3.33;;;;;;;14.57;81.88;101425.63;7392879;19;20074;-69
2022/10/06 03:29:15;;;;;;;4.35;2.92;;;;;;;14.57;82.02;101428.25;7394883;19;20418;-71
2022/10/06 03:31:44;;;;;;;7.50;3.22;;;;;;;14.57;81.86;101439.72;7393462;19;20018;-70
2022/10/06 03:34:13;;;;;;;6.82;2.92;;;;;;;14.58;81.84;101440.56;7394941;19;20089;-70
2022/10/06 03:36:43;;;;;;;4.40;3.22;;;;;;;14.59;81.53;101439.66;7394108;19;20037;-70
2022/10/06 03:39:11;;;;;;;6.82;3.22;;;;;;;14.59;81.67;101460.78;7395037;19;20408;-71
2022/10/06 03:41:42;;;;;;;5.75;3.30;;;;;;;14.60;81.92;101467.81;7400497;19;20023;-70
2022/10/06 03:44:11;;;;;;;7.90;3.75;;;;;;;14.60;81.58;101488.94;7401465;19;20509;-70
2022/10/06 03:46:39;;;;;;;5.03;3.25;;;;;;;14.59;81.86;101495.97;7398554;19;20014;-71
2022/10/06 03:49:08;;;;;;;8.10;3.13;;;;;;;14.56;81.95;101487.25;7401332;19;20481;-70
2022/10/06 03:51:39;;;;;;;5.57;3.10;;;;;;;14.58;82.11;101493.38;7399997;19;20022;-70
2022/10/06 03:54:09;;;;;;;7.43;3.63;;;;;;;14.57;82.31;101503.09;7398413;19;20524;-70
2022/10/06 03:56:42;;;;;;;4.32;3.15;;;;;;;14.57;82.58;101518.03;7401932;19;20017;-70
2022/10/06 03:59:13;;;;;;;3.30;2.80;;;;;;;14.55;82.65;101519.88;7399194;19;20027;-70
2022/10/06 04:01:43;;;;;;;3.25;2.95;;;;;;;14.56;83.11;101532.16;7400914;19;20481;-69
2022/10/06 04:04:12;;;;;;;8.20;3.08;;;;;;;14.57;83.16;101555.91;7400656;19;20014;-70
2022/10/06 04:06:43;;;;;;;9.68;3.50;;;;;;;14.58;84.91;101562.88;7400940;19;20023;-70
2022/10/06 04:09:13;;;;;;;4.00;2.42;;;;;;;14.64;86.88;101583.91;7400626;19;20019;-69
2022/10/06 04:11:45;;;;;;;4.93;2.35;;;;;;;14.73;84.95;101596.00;7398773;19;20035;-70
2022/10/06 04:14:16;;;;;;;2.80;2.03;;;;;;;14.78;84.36;101570.34;7400869;19;20026;-71
2022/10/06 04:16:46;;;;;;;3.20;2.38;;;;;;;14.84;84.03;101577.25;7400500;19;20025;-70
2022/10/06 04:19:16;;;;;;;3.78;1.90;;;;;;;14.87;83.47;101578.94;7399526;19;20018;-70
2022/10/06 04:21:46;;;;;;;3.92;2.05;;;;;;;14.89;83.19;101579.78;7397368;19;20381;-70
2022/10/06 04:24:16;;;;;;;3.53;1.95;;;;;;;14.89;81.58;101575.34;7397543;19;20027;-71
2022/10/06 04:26:48;;;;;;;3.35;1.70;;;;;;;14.91;80.79;101583.22;7399885;19;20015;-70
2022/10/06 04:29:17;;;;;;;2.45;1.25;;;;;;;14.92;79.98;101587.59;7397549;19;20033;-70
2022/10/06 04:31:47;;;;;;;1.15;1.05;;;;;;;14.93;79.29;101594.63;7398072;19;20077;-71
2022/10/06 04:34:15;;;;;;;1.05;0.90;;;;;;;14.95;77.47;101598.09;7399678;19;20014;-71
2022/10/06 04:36:45;;;;;;;2.13;0.90;;;;;;;14.96;77.12;101589.25;7399113;19;20027;-70
2022/10/06 04:39:14;;;;;;;1.27;0.75;;;;;;;14.95;76.31;101591.03;7399328;19;20022;-70
2022/10/06 04:41:46;;;;;;;1.42;0.70;;;;;;;14.96;73.97;101597.19;7395559;19;20014;-70
2022/10/06 04:44:17;;;;;;;3.38;0.85;;;;;;;14.97;74.17;101596.28;7399973;19;20026;-70
2022/10/06 04:46:45;;;;;;;1.77;0.60;;;;;;;14.97;73.81;101605.09;7398897;19;20078;-70
2022/10/06 04:49:14;;;;;;;2.97;0.90;;;;;;;14.96;71.55;101600.72;7399338;19;20023;-70
2022/10/06 04:51:43;;;;;;;0.85;0.60;;;;;;;14.98;72.43;101621.81;7395825;19;20018;-72
2022/10/06 04:54:11;;;;;;;1.90;0.52;;;;;;;14.96;68.77;101636.81;7396528;19;20028;-71
2022/10/06 04:56:40;;;;;;;1.98;0.88;;;;;;;14.96;68.41;101650.91;7397781;19;20035;-71
2022/10/06 04:59:08;;;;;;;1.63;0.50;;;;;;;14.95;68.97;101649.16;7398744;19;20018;-70
2022/10/06 05:01:39;;;;;;;1.90;0.50;;;;;;;14.95;66.81;101659.75;7398578;19;20019;-71
2022/10/06 05:04:08;;;;;;;1.90;0.57;;;;;;;14.96;67.60;101657.94;7396385;19;20018;-71
2022/10/06 05:06:39;;;;;;;1.45;0.38;;;;;;;14.95;67.30;101656.22;7398987;19;20502;-70
2022/10/06 05:09:10;;;;;;;1.40;0.52;;;;;;;14.93;67.54;101666.81;7396248;19;20070;-71
2022/10/06 05:11:38;;;;;;;0.88;0.22;;;;;;;14.92;66.17;101672.16;7398207;19;20082;-70
2022/10/06 05:14:13;;;;;;;2.40;0.40;;;;;;;14.90;66.94;101673.97;7398550;19;20082;-70
2022/10/06 05:16:45;;;;;;;1.05;0.30;;;;;;;14.89;65.75;101682.81;7398167;19;20031;-71
2022/10/06 05:19:13;;;;;;;0.65;0.38;;;;;;;14.88;66.51;101689.00;7397521;19;20019;-71
2022/10/06 05:21:42;;;;;;;0.40;0.28;;;;;;;14.87;66.40;101695.19;7398610;19;20035;-69
2022/10/06 05:24:10;;;;;;;0.38;0.17;;;;;;;14.85;66.22;101692.59;7397996;19;20026;-69
2022/10/06 05:26:39;;;;;;;0.60;0.30;;;;;;;14.86;66.74;101701.38;7395299;19;20035;-69
2022/10/06 05:29:07;;;;;;;0.73;0.20;;;;;;;14.85;66.78;101711.09;7395749;19;20011;-71
2022/10/06 05:31:39;;;;;;;5.95;0.47;;;;;;;14.86;66.67;101727.78;7396937;19;20074;-70
2022/10/06 05:34:11;;;;;;;2.88;0.40;;;;;;;14.83;66.76;101728.72;7398245;19;20033;-69
2022/10/06 05:36:39;;;;;;;2.90;0.50;;;;;;;14.82;66.72;101730.53;7397714;19;20031;-69
2022/10/06 05:39:08;;;;;;;1.13;0.30;;;;;;;14.79;66.67;101730.56;7395564;19;20015;-70
2022/10/06 05:41:37;;;;;;;0.95;0.28;;;;;;;14.80;65.79;101742.88;7397089;19;20019;-70
2022/10/06 05:44:05;;;;;;;1.55;0.40;;;;;;;14.79;65.78;101746.44;7397491;19;20512;-68
2022/10/06 05:46:35;;;;;;;3.58;0.30;;;;;;;14.79;66.65;101757.00;7397930;19;20031;-68
2022/10/06 05:49:06;;;;;;;3.25;0.50;;;;;;;14.79;66.33;101761.41;7397736;19;20019;-69
2022/10/06 05:51:38;;;;;;;4.00;0.77;;;;;;;14.78;66.31;101765.81;7396528;19;20029;-68
2022/10/06 05:54:07;;;;;;;1.02;0.47;;;;;;;14.79;66.46;101780.75;7395309;19;20492;-69
2022/10/06 05:56:37;;;;;;;2.05;0.65;;;;;;;14.76;66.55;101772.94;7397552;19;20031;-69
2022/10/06 05:59:07;;;;;;;1.42;0.38;;;;;;;14.75;66.60;101780.91;7399791;19;20410;-70
2022/10/06 06:01:38;;;;;;;0.80;0.40;;;;;;;14.72;66.81;101786.22;7396756;19;20018;-68
2022/10/06 06:04:08;;;;;;;1.00;0.50;;;;;;;14.72;66.91;101792.41;7396484;19;20033;-68
2022/10/06 06:06:41;;;;;;;0.93;0.40;;;;;;;14.69;66.44;101803.00;7396829;19;20102;-69
2022/10/06 06:09:12;;;;;;;1.80;0.60;;;;;;;14.68;66.99;101803.06;7395557;19;20027;-69
2022/10/06 06:11:43;;;;;;;1.90;0.47;;;;;;;14.68;67.43;101811.84;7395674;19;20018;-69
2022/10/06 06:14:13;;;;;;;1.05;0.25;;;;;;;14.67;67.25;101818.00;7396822;19;20483;-70
2022/10/06 06:16:45;;;;;;;0.63;0.30;;;;;;;14.66;67.20;101821.59;7396115;19;20018;-69
2022/10/06 06:19:15;;;;;;;2.78;0.52;;;;;;;14.63;67.49;101834.81;7396507;19;20134;-68
2022/10/06 06:21:46;;;;;;;1.33;0.30;;;;;;;14.63;67.86;101842.72;7396727;19;20026;-69
2022/10/06 06:24:15;;;;;;;2.60;0.57;;;;;;;14.61;67.87;101844.56;7395719;19;20414;-65
2022/10/06 06:26:44;;;;;;;4.60;0.50;;;;;;;14.60;68.07;101861.28;7394440;19;20023;-67
2022/10/06 06:29:12;;;;;;;1.58;0.30;;;;;;;14.59;68.23;101860.41;7394410;19;20011;-66
2022/10/06 06:31:42;;;;;;;0.68;0.30;;;;;;;14.56;68.71;101870.16;7395446;19;20174;-67
2022/10/06 06:34:11;;;;;;;1.30;0.30;;;;;;;14.55;68.69;101873.72;7396412;19;20094;-67
2022/10/06 06:36:43;;;;;;;1.63;0.50;;;;;;;14.53;69.09;101888.72;7395752;19;20014;-67
2022/10/06 06:39:18;;;;;;;0.70;0.22;;;;;;;14.48;69.39;101908.16;7396176;19;20037;-67
2022/10/06 06:41:47;;;;;;;1.38;0.40;;;;;;;14.47;69.69;101900.28;7396082;19;20014;-67
2022/10/06 06:44:16;;;;;;;3.70;0.85;;;;;;;14.43;69.82;101910.03;7395534;19;20509;-67
2022/10/06 06:46:47;;;;;;;1.75;0.45;;;;;;;14.40;69.89;101917.13;7393662;19;20022;-68
2022/10/06 06:49:17;;;;;;;5.05;1.05;;;;;;;14.34;70.33;101934.84;7394816;19;20472;-67
2022/10/06 06:51:50;;;;;;;1.67;0.40;;;;;;;14.29;70.41;101936.69;7395222;19;20070;-67
2022/10/06 06:54:21;;;;;;;2.63;0.45;;;;;;;14.25;70.43;101932.34;7395729;19;20017;-68
2022/10/06 06:56:50;;;;;;;1.88;0.40;;;;;;;14.22;70.64;101950.88;7394697;19;20078;-70
2022/10/06 06:59:19;;;;;;;2.92;0.80;;;;;;;14.21;70.85;101961.47;7394971;19;20369;-72
2022/10/06 07:01:48;;;;;;;2.20;0.60;;;;;;;14.18;70.87;101971.19;7395828;19;20023;-70
2022/10/06 07:04:17;;;;;;;2.97;0.50;;;;;;;14.20;71.00;101959.72;7395236;19;20031;-70
2022/10/06 07:06:55;;;;;;;3.72;0.70;;;;;;;14.22;70.56;101976.44;7394596;19;20422;-69
2022/10/06 07:09:27;;;;;;;3.83;0.80;;;;;;;14.24;70.46;101972.84;7395336;19;20078;-70
2022/10/06 07:11:56;;;;;;;7.45;1.05;;;;;;;14.28;70.27;101978.94;7393384;19;20031;-70
2022/10/06 07:14:25;;;;;;;4.68;0.52;;;;;;;14.31;70.44;101984.16;7393674;19;20018;-70
2022/10/06 07:25:13;;;;;;;2.67;0.70;;;;;;;14.32;70.18;102007.03;7394683;19;20051;-69
2022/10/06 07:27:44;;;;;;;3.55;0.80;;;;;;;14.29;70.35;101997.41;7393179;19;20018;-70
2022/10/06 07:30:16;;;;;;;2.75;0.60;;;;;;;14.27;70.07;102022.09;7395160;19;20015;-70
2022/10/06 07:32:45;;;;;;;2.75;0.52;;;;;;;14.25;69.75;102016.81;7393644;19;20078;-72
2022/10/06 07:35:15;;;;;;;4.72;0.75;;;;;;;14.24;69.85;102007.19;7394431;19;20024;-71
2022/10/06 07:37:44;;;;;;;1.58;0.40;;;;;;;14.25;69.99;102014.16;7393702;19;20365;-71
2022/10/06 07:40:15;;;;;;;3.13;0.70;;;;;;;14.26;69.95;102026.47;7394649;19;20006;-71
2022/10/06 07:42:50;;;;;;;4.18;0.52;;;;;;;14.29;69.94;102017.63;7393803;19;20481;-72
2022/10/06 07:48:03;;;;;;;4.47;0.75;;;;;;;14.29;69.11;102042.28;7393047;19;20050;-70
2022/10/06 07:50:32;;;;;;;2.47;0.60;;;;;;;14.31;68.70;102031.69;7393780;19;20381;-71
2022/10/06 07:53:07;;;;;;;3.53;0.52;;;;;;;14.37;69.04;102038.63;7392650;19;20036;-70
2022/10/06 07:55:40;;;;;;;3.10;0.77;;;;;;;14.41;68.09;102045.63;7394022;19;20041;-70
2022/10/06 07:58:12;;;;;;;3.78;0.60;;;;;;;14.47;68.10;102049.00;7391886;19;20022;-70
2022/10/06 08:00:41;;;;;;;4.85;1.25;;;;;;;14.51;67.68;102057.75;7391704;19;20014;-70
2022/10/06 08:03:13;;;;;;;4.80;0.70;;;;;;;14.54;67.85;102073.53;7393548;19;20022;-69
2022/10/06 08:05:41;;;;;;;4.05;0.98;;;;;;;14.54;67.53;102077.97;7394168;19;20015;-71
2022/10/06 08:08:10;;;;;;;3.22;0.88;;;;;;;14.57;68.12;102072.59;7392336;19;20427;-72
2022/10/06 08:10:41;;;;;;;3.30;0.90;;;;;;;14.61;67.88;102076.97;7393327;19;20506;-71
2022/10/06 08:13:10;;;;;;;5.90;1.83;;;;;;;14.67;68.09;102084.78;7391829;19;20431;-70
2022/10/06 08:15:38;;;;;;;5.72;0.93;;;;;;;14.72;67.82;102082.06;7393566;19;20036;-71
2022/10/06 08:18:07;;;;;;;2.15;0.75;;;;;;;14.79;67.12;102100.44;7391937;19;20082;-70
2022/10/06 08:20:35;;;;;;;3.60;0.60;;;;;;;14.82;66.29;102096.84;7392936;19;20355;-69
2022/10/06 08:23:05;;;;;;;5.70;0.90;;;;;;;14.85;66.33;102102.09;7390466;19;20502;-71
2022/10/06 08:25:41;;;;;;;6.53;0.70;;;;;;;14.88;66.12;102104.69;7393337;19;20021;-71
2022/10/06 08:28:13;;;;;;;4.32;0.90;;;;;;;14.90;65.91;102102.00;7398630;19;20023;-72
2022/10/06 08:30:41;;;;;;;4.40;1.00;;;;;;;14.93;66.26;102101.97;7397437;19;20014;-71
2022/10/06 08:33:10;;;;;;;5.22;0.98;;;;;;;14.96;66.43;102102.78;7398846;19;20107;-71
2022/10/06 08:35:38;;;;;;;3.67;0.82;;;;;;;15.01;66.29;102115.03;7400520;19;20083;-72
2022/10/06 08:38:07;;;;;;;3.35;0.63;;;;;;;15.04;65.54;102115.84;7398051;19;20014;-71
2022/10/06 08:40:36;;;;;;;5.82;0.73;;;;;;;15.06;65.53;102116.66;7399875;19;20018;-71
2022/10/06 08:43:04;;;;;;;3.97;0.82;;;;;;;15.05;64.87;102122.88;7398383;19;20010;-71
2022/10/06 08:45:41;;;;;;;6.03;0.90;;;;;;;14.99;62.63;102145.00;7399818;19;20014;-71
2022/10/06 08:48:15;;;;;;;6.63;0.85;;;;;;;15.01;64.32;102129.09;7397696;19;20112;-68
2022/10/06 08:50:52;;;;;;;6.22;0.75;;;;;;;15.04;63.66;102129.06;7400511;19;20022;-69
2022/10/06 08:53:26;;;;;;;6.72;1.00;;;;;;;15.11;64.12;102140.38;7399796;19;20014;-68
2022/10/06 08:56:02;;;;;;;6.85;1.23;;;;;;;15.13;63.03;102167.69;7400548;19;20387;-67
2022/10/06 08:58:42;;;;;;;7.93;1.30;;;;;;;15.13;62.93;102142.09;7398553;19;20018;-68
2022/10/06 09:01:18;;;;;;;5.07;0.80;;;;;;;15.16;62.99;102138.53;7400415;19;20022;-69
2022/10/06 09:03:50;;;;;;;4.57;0.90;;;;;;;15.19;62.98;102150.81;7400266;19;20018;-68
2022/10/06 09:06:34;;;;;;;8.15;1.13;;;;;;;15.20;61.70;102156.06;7399901;19;20409;-69
2022/10/06 09:09:08;;;;;;;6.65;1.17;;;;;;;15.21;62.16;102155.16;7397655;19;20041;-69
2022/10/06 09:11:48;;;;;;;2.33;0.82;;;;;;;15.20;60.25;102157.84;7399833;19;20019;-68
2022/10/06 09:14:23;;;;;;;4.43;0.90;;;;;;;15.15;60.13;102165.84;7399762;19;20019;-69
2022/10/06 09:16:59;;;;;;;5.95;0.93;;;;;;;15.21;61.42;102159.59;7396899;19;20018;-68
2022/10/06 09:19:35;;;;;;;3.85;0.65;;;;;;;15.22;60.00;102164.84;7399343;19;20056;-68
2022/10/06 09:22:06;;;;;;;4.50;1.05;;;;;;;15.25;60.64;102164.81;7399156;19;20023;-67
2022/10/06 09:24:40;;;;;;;5.07;0.75;;;;;;;15.28;60.55;102166.53;7399757;19;20027;-68
2022/10/06 09:27:16;;;;;;;;;;;;;;;15.25;58.66;102166.56;7399330;19;20031;-69
2022/10/06 09:29:44;;;;;;;4.45;1.10;;;;;;;15.24;58.44;102167.47;7399499;19;19927;-69
2022/10/06 09:32:16;;;;;;;3.55;0.90;;;;;;;15.25;59.16;102195.66;7399600;19;20074;-67
2022/10/06 09:34:50;;;;;;;4.20;0.82;;;;;;;15.27;58.02;102209.72;7398257;19;20018;-68
2022/10/06 09:37:19;;;;;;;3.38;0.75;;;;;;;15.27;58.22;102185.94;7396847;19;20028;-68
2022/10/06 09:39:50;;;;;;;5.78;1.10;;;;;;;15.31;58.16;102209.63;7396377;19;20477;-69
2022/10/06 09:42:22;;;;;;;13.02;1.48;;;;;;;15.37;57.77;102207.78;7397693;19;21121;-69
2022/10/06 09:44:59;;;;;;;3.88;1.40;;;;;;;15.45;57.73;102197.91;7398621;19;20022;-69
2022/10/06 09:47:46;;;;;;;5.75;1.27;;;;;;;15.54;56.18;102224.19;7397697;19;20018;-67
2022/10/06 09:50:21;;;;;;;10.02;1.83;;;;;;;15.63;55.73;102201.97;7397835;19;20369;-68
2022/10/06 09:53:15;;;;;;;5.25;0.93;;;;;;;15.72;54.66;102209.75;7396663;19;20026;-68
2022/10/06 09:55:53;;;;;;;2.45;0.95;;;;;;;15.80;56.16;102206.94;7397685;19;20511;-67
2022/10/06 09:58:33;;;;;;;6.18;0.90;;;;;;;15.86;55.62;102211.25;7396504;19;20427;-68
2022/10/06 10:01:03;;;;;;;3.88;0.68;;;;;;;15.89;55.86;102208.56;7398745;19;20015;-69
2022/10/06 10:03:51;;;;;;;3.75;1.10;;;;;;;15.90;53.76;102212.97;7397604;19;20015;-69
2022/10/06 10:06:26;;;;;;;4.38;0.80;;;;;;;15.89;52.98;102230.59;7396143;19;20011;-69
2022/10/06 10:09:14;;;;;;;5.15;0.85;;;;;;;15.88;54.59;102220.06;7394947;19;20504;-69
2022/10/06 10:14:24;;;;;;;4.43;0.82;;;;;;;15.81;54.86;102221.94;7394438;19;20352;-68
2022/10/06 10:16:52;;;;;;;4.40;1.00;;;;;;;15.78;54.88;102219.31;7394966;19;20026;-67
2022/10/06 10:19:34;;;;;;;2.97;1.00;;;;;;;15.74;53.39;102239.69;7397301;19;20015;-68
2022/10/06 10:22:02;;;;;;;7.00;0.90;;;;;;;15.73;54.27;102230.03;7396895;19;20018;-68
2022/10/06 10:24:48;;;;;;;4.15;0.73;;;;;;;15.74;53.85;102223.81;7396344;19;20078;-69
2022/10/06 10:27:22;;;;;;;5.15;1.10;;;;;;;15.76;53.86;102216.72;7396769;19;20015;-69
2022/10/06 10:30:00;;;;;;;;;;;;;;;15.80;53.16;102228.97;7398773;19;20018;-68
2022/10/06 10:32:46;;;;;;;5.22;0.80;;;;;;;15.89;53.42;102227.09;7397108;19;19935;-68
2022/10/06 10:35:24;;;;;;;3.83;0.80;;;;;;;15.98;53.20;102221.59;7396460;19;20427;-68
2022/10/06 10:37:58;;;;;;;2.47;0.65;;;;;;;16.06;53.85;102224.09;7395144;19;20022;-69
2022/10/06 10:40:37;;;;;;;2.33;0.60;;;;;;;16.16;53.32;102222.13;7396240;19;20027;-69
2022/10/06 10:43:12;;;;;;;3.75;0.90;;;;;;;16.21;52.74;102229.03;7395991;19;20028;-68
2022/10/06 10:45:47;;;;;;;5.05;1.30;;;;;;;16.27;53.33;102222.75;7397310;19;20029;-69
2022/10/06 10:48:23;;;;;;;6.28;0.77;;;;;;;16.30;52.67;102225.31;7392583;19;20010;-69
2022/10/06 10:51:00;;;;;;;5.63;1.02;;;;;;;16.34;52.72;102229.66;7396028;19;20032;-68
2022/10/06 10:53:36;;;;;;;5.13;0.90;;;;;;;16.40;51.14;102245.44;7395042;19;20040;-68
2022/10/06 10:56:09;;;;;;;6.38;0.68;;;;;;;16.43;51.43;102223.28;7396375;19;20031;-69
2022/10/06 10:58:40;;;;;;;4.70;1.35;;;;;;;16.42;50.69;102254.19;7394614;19;20028;-69
2022/10/06 11:01:24;;;;;;;5.38;0.60;;;;;;;16.41;50.56;102238.34;7395632;19;20017;-68
2022/10/06 11:04:01;;;;;;;8.68;1.08;;;;;;;16.40;51.69;102240.13;7393948;19;20488;-69
2022/10/06 11:06:53;;;;;;;4.85;0.70;;;;;;;16.41;50.23;102241.84;7394018;19;20427;-69
2022/10/06 11:09:26;;;;;;;4.78;0.80;;;;;;;16.43;50.20;102240.03;7394686;19;20010;-69
2022/10/06 11:12:06;;;;;;;8.48;1.20;;;;;;;16.44;49.47;102270.94;7395354;19;20123;-68
2022/10/06 11:14:52;;;;;;;5.05;0.70;;;;;;;16.47;49.27;102246.16;7393566;19;20488;-69
2022/10/06 11:17:38;;;;;;;2.08;0.60;;;;;;;16.44;49.30;102260.34;7394455;19;20497;-68
2022/10/06 11:20:21;;;;;;;3.15;0.80;;;;;;;16.40;49.54;102250.72;7393675;19;20014;-68
2022/10/06 11:22:58;;;;;;;6.30;0.90;;;;;;;16.38;49.12;102249.88;7395480;19;20048;-69
2022/10/06 11:25:35;;;;;;;4.88;0.90;;;;;;;16.41;50.29;102247.16;7395107;19;20018;-68
2022/10/06 11:28:16;;;;;;;5.85;1.23;;;;;;;16.39;48.93;102259.56;7393195;19;20503;-69
2022/10/06 11:31:00;;;;;;;4.68;0.70;;;;;;;16.51;50.34;102252.25;7395547;19;20021;-69
2022/10/06 11:33:31;;;;;;;;;;;;;;;16.54;49.77;102255.72;7395660;19;20032;-68
2022/10/06 11:36:00;;;;;;;3.25;0.90;;;;;;;16.57;51.03;102252.13;7392411;19;20263;-68
2022/10/06 11:38:37;;;;;;;8.68;1.52;;;;;;;16.57;50.01;102252.13;7391699;19;20469;-68
2022/10/06 11:41:13;;;;;;;2.42;0.80;;;;;;;16.60;50.79;102257.34;7395055;19;20018;-69
2022/10/06 11:43:49;;;;;;;4.32;0.82;;;;;;;16.62;50.47;102252.88;7391844;19;20023;-68
2022/10/06 11:46:33;;;;;;;5.70;1.23;;;;;;;16.67;50.13;102253.66;7394520;19;20018;-68
2022/10/06 11:49:32;;;;;;;3.70;0.60;;;;;;;16.71;49.60;102255.31;7394520;19;20036;-69
2022/10/06 11:52:51;;;;;;;6.55;1.25;;;;;;;16.73;48.49;102257.91;7394253;19;20505;-67
2022/10/06 11:55:25;;;;;;;4.85;0.80;;;;;;;16.78;50.04;102245.41;7391581;19;20015;-68
2022/10/06 11:58:18;;;;;;;5.78;1.17;;;;;;;16.80;48.00;102261.31;7392444;19;20074;-68
2022/10/06 12:00:51;;;;;;;3.65;0.90;;;;;;;16.82;48.21;102262.13;7398547;19;20010;-68
2022/10/06 12:03:49;;;;;;;2.90;0.88;;;;;;;16.86;46.95;102269.13;7401845;19;20039;-69